createdAt,value
2022-09-24T00:03:29.593Z,81.99
2022-09-24T00:09:49.591Z,82.18
2022-09-24T00:16:12.645Z,82.35
2022-09-24T00:22:32.573Z,82.31
2022-09-24T00:28:55.610Z,81.63
2022-09-24T00:35:15.659Z,81.66
2022-09-24T00:41:38.605Z,81.49
2022-09-24T00:47:58.590Z,81.49
2022-09-24T00:54:21.633Z,81.76
2022-09-24T01:00:41.675Z,81.38
2022-09-24T01:07:04.568Z,81.58
2022-09-24T01:13:24.681Z,81.82
2022-09-24T01:19:47.654Z,81.58
2022-09-24T01:26:07.617Z,81.9
2022-09-24T01:32:32.568Z,81.95
2022-09-24T01:38:50.622Z,82
2022-09-24T01:45:13.810Z,82.01
2022-09-24T01:51:33.613Z,82.01
2022-09-24T01:57:56.571Z,82.31
2022-09-24T02:04:16.635Z,82.24
2022-09-24T02:10:39.611Z,82.06
2022-09-24T02:16:59.584Z,82.01
2022-09-24T02:23:22.596Z,81.8
2022-09-24T02:29:42.598Z,81.91
2022-09-24T02:36:05.591Z,82.03
2022-09-24T02:42:25.586Z,81.95
2022-09-24T02:48:48.703Z,81.73
2022-09-24T02:55:08.610Z,81.89
2022-09-24T03:01:31.700Z,82.48
2022-09-24T03:07:51.718Z,82.75
2022-09-24T03:14:14.649Z,82.83
2022-09-24T03:30:40.492Z,82.81
2022-09-24T03:37:00.560Z,83.03
2022-09-24T03:43:23.578Z,82.75
2022-09-24T03:49:43.592Z,82.91
2022-09-24T03:56:06.557Z,82.55
2022-09-24T04:02:26.654Z,82.68
2022-09-24T04:08:49.601Z,82.64
2022-09-24T04:15:09.578Z,82.75
2022-09-24T04:21:32.554Z,82.49
2022-09-24T04:27:52.668Z,82.23
2022-09-24T04:34:15.598Z,82.45
2022-09-24T04:40:35.652Z,82.51
2022-09-24T04:46:58.637Z,83.1
2022-09-24T04:53:18.580Z,82.64
2022-09-24T04:59:41.594Z,82.36
2022-09-24T05:06:01.593Z,81.92
2022-09-24T05:12:24.561Z,81.96
2022-09-24T05:18:44.597Z,81.97
2022-09-24T05:25:07.590Z,82.27
2022-09-24T05:31:27.666Z,82.48
2022-09-24T05:37:50.590Z,82.2
2022-09-24T05:44:10.684Z,82.34
2022-09-24T05:50:33.591Z,81.9
2022-09-24T05:56:53.553Z,81.26
2022-09-24T06:03:16.944Z,81.36
2022-09-24T06:09:36.657Z,80.7
2022-09-24T06:15:59.640Z,80.96
2022-09-24T06:22:19.679Z,80.99
2022-09-24T06:28:42.582Z,80.67
2022-09-24T06:35:02.607Z,80.43
2022-09-24T06:41:25.676Z,80.18
2022-09-24T06:47:45.561Z,79.81
2022-09-24T06:54:08.581Z,79.76
2022-09-24T07:00:28.586Z,79.14
2022-09-24T07:06:51.624Z,78.65
2022-09-24T07:13:11.590Z,78.5
2022-09-24T07:19:34.610Z,77.84
2022-09-24T07:25:54.596Z,76.9
2022-09-24T07:32:17.560Z,76.86
2022-09-24T07:38:37.623Z,76.36
2022-09-24T07:45:00.595Z,76.29
2022-09-24T07:51:20.562Z,76.22
2022-09-24T07:57:43.618Z,75.89
2022-09-24T08:04:03.674Z,75.31
2022-09-24T08:10:26.585Z,75.07
2022-09-24T08:16:46.595Z,74.94
2022-09-24T08:23:09.565Z,75.44
2022-09-24T08:29:29.592Z,75.17
2022-09-24T08:35:52.688Z,74.88
2022-09-24T08:42:12.576Z,74.09
2022-09-24T08:58:23.108Z,73.21
2022-09-24T09:04:42.574Z,72.65
2022-09-24T09:11:05.600Z,71.14
2022-09-24T09:17:25.591Z,70.56
2022-09-24T09:23:48.577Z,68.44
2022-09-24T09:30:13.401Z,67.66
2022-09-24T09:36:31.609Z,66.65
2022-09-24T09:42:51.571Z,66.46
2022-09-24T09:49:14.578Z,66.18
2022-09-24T09:55:34.840Z,64.82
2022-09-24T10:01:57.713Z,65.79
2022-09-24T10:08:17.586Z,66.81
2022-09-24T10:14:40.591Z,66.18
2022-09-24T10:21:00.608Z,65.92
2022-09-24T10:27:23.591Z,64.91
2022-09-24T10:33:43.595Z,63.69
2022-09-24T10:40:06.672Z,63.91
2022-09-24T10:46:26.629Z,63.14
2022-09-24T10:52:49.938Z,62.17
2022-09-24T10:59:09.578Z,62.93
2022-09-24T11:05:32.595Z,63.31
2022-09-24T11:11:52.587Z,63.71
2022-09-24T11:18:15.568Z,62.02
2022-09-24T11:24:35.563Z,64.49
2022-09-24T11:30:58.769Z,62.78
2022-09-24T11:37:18.588Z,64.46
2022-09-24T11:43:41.571Z,65.18
2022-09-24T11:50:01.713Z,65.9
2022-09-24T11:56:24.586Z,65.9
2022-09-24T12:02:46.144Z,65.65
2022-09-24T12:09:07.599Z,65.99
2022-09-24T12:15:27.567Z,65.81
2022-09-24T12:21:50.604Z,66.02
2022-09-24T12:28:10.671Z,65.73
2022-09-24T12:34:33.590Z,65.38
2022-09-24T12:40:53.632Z,66.48
2022-09-24T12:47:16.683Z,66.97
2022-09-24T12:53:36.621Z,67.65
2022-09-24T12:59:59.556Z,67.76
2022-09-24T13:06:20.798Z,68.07
2022-09-24T13:12:43.569Z,68.25
2022-09-24T13:19:03.600Z,68.63
2022-09-24T13:25:26.611Z,68.71
2022-09-24T13:31:46.612Z,68.99
2022-09-24T13:38:09.600Z,71.14
2022-09-24T13:44:29.598Z,70.59
2022-09-24T13:50:52.581Z,69.93
2022-09-24T13:57:12.582Z,71.29
2022-09-24T14:03:35.592Z,72.42
2022-09-24T14:26:59.586Z,75.38
2022-09-24T14:33:19.580Z,76.04
2022-09-24T14:39:42.618Z,76.95
2022-09-24T14:46:02.762Z,77.33
2022-09-24T14:52:25.577Z,78.53
2022-09-24T14:58:45.591Z,80.31
2022-09-24T15:05:08.748Z,80.39
2022-09-24T15:11:28.609Z,80.93
2022-09-24T15:17:51.586Z,81.42
2022-09-24T15:24:11.607Z,81.58
2022-09-24T15:30:34.584Z,82.78
2022-09-24T15:36:54.570Z,83.44
2022-09-24T15:43:17.653Z,83.31
2022-09-24T15:49:37.606Z,84.54
2022-09-24T15:56:00.584Z,83.86
2022-09-24T16:02:20.713Z,84.44
2022-09-24T16:08:43.569Z,84.8
2022-09-24T16:15:03.587Z,84.88
2022-09-24T16:21:26.616Z,84.9
2022-09-24T16:27:46.572Z,84.67
2022-09-24T16:34:09.613Z,84.75
2022-09-24T16:40:29.669Z,85.16
2022-09-24T16:46:52.613Z,85.17
2022-09-24T16:53:12.588Z,85.58
2022-09-24T16:59:35.588Z,85.84
2022-09-24T17:05:55.573Z,85.9
2022-09-24T17:12:18.565Z,86.02
2022-09-24T17:18:38.635Z,86.15
2022-09-24T17:25:01.574Z,86.68
2022-09-24T17:31:21.678Z,86.51
2022-09-24T17:37:44.604Z,86.43
2022-09-24T17:44:04.564Z,86.56
2022-09-24T17:50:27.577Z,86.31
2022-09-24T17:56:47.590Z,86.09
2022-09-24T18:03:10.723Z,85.64
2022-09-24T18:09:30.595Z,85.23
2022-09-24T18:15:53.619Z,85.44
2022-09-24T18:22:13.569Z,85.72
2022-09-24T18:28:36.575Z,85.7
2022-09-24T18:34:56.585Z,85.69
2022-09-24T18:41:19.811Z,85.74
2022-09-24T18:47:39.567Z,85.97
2022-09-24T18:54:02.601Z,85.98
2022-09-24T19:00:22.559Z,85.75
2022-09-24T19:06:45.598Z,85.84
2022-09-24T19:13:05.624Z,85.96
2022-09-24T19:19:28.561Z,85.62
2022-09-24T19:25:49.686Z,85.56
2022-09-24T19:49:13.574Z,85.97
2022-09-24T19:55:36.551Z,85.92
2022-09-24T20:01:56.696Z,85.68
2022-09-24T20:08:19.585Z,86.45
2022-09-24T20:14:39.571Z,87.24
2022-09-24T20:21:02.574Z,87.54
2022-09-24T20:27:22.672Z,87.62
2022-09-24T20:33:45.587Z,88.3
2022-09-24T20:40:05.583Z,88.8
2022-09-24T20:46:28.826Z,88.56
2022-09-24T20:52:48.591Z,88.46
2022-09-24T20:59:11.571Z,88.72
2022-09-24T21:05:31.610Z,88.86
2022-09-24T21:11:54.584Z,88.92
2022-09-24T21:18:22.565Z,88.93
2022-09-24T21:24:37.754Z,88.93
2022-09-24T21:30:57.641Z,88.92
2022-09-24T21:37:20.580Z,88.82
2022-09-24T21:43:40.586Z,88.74
2022-09-24T21:50:03.556Z,89.04
2022-09-24T21:56:23.583Z,88.88
2022-09-24T22:20:40.685Z,88.86
2022-09-24T22:27:00.566Z,89.12
2022-09-24T22:33:23.578Z,89.42
2022-09-24T22:39:43.616Z,89.57
2022-09-24T22:46:06.592Z,89.76
2022-09-24T22:52:26.592Z,89.79
2022-09-24T22:58:49.619Z,89.85
2022-09-24T23:05:09.639Z,89.86
2022-09-24T23:11:32.575Z,88.93
2022-09-24T23:17:52.612Z,89.05
2022-09-24T23:24:15.577Z,88.62
2022-09-24T23:30:35.608Z,88.57
2022-09-24T23:36:58.612Z,88.87
2022-09-24T23:43:18.595Z,88.47
2022-09-24T23:49:41.597Z,88.68
2022-09-24T23:56:01.599Z,88.58
